Time;durP1;ratioP1;P1;durP2;ratioP2;P2;SDS_P1;SDS_P2;PMS_P1;PMS_P2;Temp;Humidity;BMP_temperature;BMP_pressure;BME280_temperature;BME280_humidity;BME280_pressure;Samples;Min_cycle;Max_cycle;Signal;HPM_P1;HPM_P2
2022/04/07 00:00:09;;;;;;;1.33;1.17;;;10.30;99.90;;;;;;4979292;28;20189;-86
2022/04/07 00:02:35;;;;;;;1.30;1.20;;;10.20;99.90;;;;;;4979153;28;20257;-86
2022/04/07 00:05:01;;;;;;;1.83;1.00;;;10.20;99.90;;;;;;4979167;28;20183;-86
2022/04/07 00:07:27;;;;;;;1.17;1.07;;;10.20;99.90;;;;;;4978862;28;20597;-87
2022/04/07 00:09:53;;;;;;;0.83;0.83;;;10.20;99.90;;;;;;4978978;28;20207;-86
2022/04/07 00:12:19;;;;;;;1.20;1.10;;;10.20;99.90;;;;;;4979365;28;20203;-86
2022/04/07 00:14:45;;;;;;;1.10;1.00;;;10.10;99.90;;;;;;4978941;28;20183;-86
2022/04/07 00:17:11;;;;;;;1.20;1.10;;;10.10;99.90;;;;;;4979073;28;20218;-86
2022/04/07 00:19:38;;;;;;;1.47;0.90;;;10.20;99.90;;;;;;4979205;28;20246;-86
2022/04/07 00:22:04;;;;;;;1.20;1.10;;;10.20;99.90;;;;;;4978758;28;20183;-86
2022/04/07 00:24:30;;;;;;;0.80;0.80;;;10.20;99.90;;;;;;4978378;28;20190;-86
2022/04/07 00:26:55;;;;;;;1.00;0.87;;;10.20;99.90;;;;;;4994901;28;20183;-86
2022/04/07 00:29:22;;;;;;;0.70;0.70;;;10.20;99.90;;;;;;4975073;28;20694;-86
2022/04/07 00:31:55;;;;;;;1.13;0.90;;;10.20;99.90;;;;;;4975095;28;20230;-86
2022/04/07 00:34:21;;;;;;;1.17;0.93;;;10.20;99.90;;;;;;4975034;28;20180;-87
2022/04/07 00:36:47;;;;;;;1.20;1.00;;;10.10;99.90;;;;;;4974724;28;20231;-86
2022/04/07 00:39:13;;;;;;;1.03;0.97;;;10.10;99.90;;;;;;4975125;28;20199;-86
2022/04/07 00:41:39;;;;;;;1.40;1.30;;;10.10;99.90;;;;;;4958972;28;20211;-86
2022/04/07 00:44:09;;;;;;;1.30;1.13;;;10.10;99.90;;;;;;4974718;28;20200;-86
2022/04/07 00:46:36;;;;;;;1.37;0.90;;;10.10;99.90;;;;;;4977143;28;20279;-86
2022/04/07 00:49:02;;;;;;;1.60;1.17;;;10.00;99.90;;;;;;4977035;28;20191;-86
2022/04/07 00:51:28;;;;;;;1.10;1.00;;;10.00;99.90;;;;;;4977726;28;20237;-86
2022/04/07 00:53:54;;;;;;;1.00;0.90;;;9.90;99.90;;;;;;4977891;28;20211;-86
2022/04/07 00:56:20;;;;;;;0.90;0.90;;;10.00;99.90;;;;;;4977839;28;20219;-86
2022/04/07 00:58:47;;;;;;;1.17;1.07;;;9.90;99.90;;;;;;4974613;28;20617;-86
2022/04/07 01:01:16;;;;;;;1.20;1.10;;;10.00;99.90;;;;;;4958702;28;20176;-86
2022/04/07 01:03:42;;;;;;;1.33;1.13;;;9.90;99.90;;;;;;4974178;28;20226;-86
2022/04/07 01:06:08;;;;;;;0.97;0.97;;;9.90;99.90;;;;;;4958180;28;20555;-86
2022/04/07 01:08:34;;;;;;;1.17;1.07;;;9.90;99.90;;;;;;4974557;28;20184;-86
2022/04/07 01:11:00;;;;;;;2.13;1.20;;;9.90;99.90;;;;;;4958249;28;20180;-86
2022/04/07 01:13:54;;;;;;;0.90;0.90;;;9.90;99.90;;;;;;4960108;28;20200;-86
2022/04/07 01:16:26;;;;;;;1.33;1.20;;;9.90;99.90;;;;;;4976046;28;20230;-86
2022/04/07 01:18:52;;;;;;;1.20;1.10;;;9.90;99.90;;;;;;4974436;28;20191;-86
2022/04/07 01:21:19;;;;;;;0.90;0.90;;;9.90;99.90;;;;;;4974840;28;20183;-86
2022/04/07 01:24:07;;;;;;;1.17;1.13;;;9.90;99.90;;;;;;4974375;28;20195;-86
2022/04/07 01:26:44;;;;;;;1.27;1.17;;;9.90;99.90;;;;;;4958283;28;20255;-86
2022/04/07 01:29:12;;;;;;;1.80;1.20;;;9.80;99.90;;;;;;4973849;28;20210;-86
2022/04/07 01:31:38;;;;;;;1.60;1.00;;;9.80;99.90;;;;;;4974145;28;20187;-86
2022/04/07 01:34:09;;;;;;;0.97;0.97;;;9.80;99.90;;;;;;4958238;28;20246;-86
2022/04/07 01:36:39;;;;;;;1.37;1.10;;;9.80;99.90;;;;;;4974196;28;20212;-86
2022/04/07 01:39:09;;;;;;;1.20;1.10;;;9.80;99.90;;;;;;4974398;28;20216;-86
2022/04/07 01:41:40;;;;;;;1.37;1.10;;;9.80;99.90;;;;;;4974003;28;20263;-86
2022/04/07 01:44:08;;;;;;;0.83;0.83;;;9.90;99.90;;;;;;4974040;28;20196;-86
2022/04/07 01:46:34;;;;;;;1.80;1.10;;;9.90;99.90;;;;;;4973685;28;20640;-86
2022/04/07 01:49:02;;;;;;;1.20;1.10;;;9.80;99.90;;;;;;4974030;28;20191;-86
2022/04/07 01:51:29;;;;;;;2.10;1.10;;;9.80;99.90;;;;;;4973930;28;20176;-86
2022/04/07 01:53:55;;;;;;;1.10;0.90;;;9.80;99.90;;;;;;4974023;28;20285;-86
2022/04/07 01:56:22;;;;;;;1.00;1.00;;;9.80;99.90;;;;;;4973917;28;20204;-86
2022/04/07 01:58:49;;;;;;;1.40;1.00;;;9.80;99.90;;;;;;4974203;28;20275;-86
2022/04/07 02:01:15;;;;;;;1.00;0.90;;;9.70;99.90;;;;;;4974038;28;20176;-86
2022/04/07 02:03:42;;;;;;;1.00;0.90;;;9.70;99.90;;;;;;4973839;28;20200;-86
2022/04/07 02:06:12;;;;;;;2.30;1.17;;;9.70;99.90;;;;;;4973887;28;20202;-86
2022/04/07 02:08:38;;;;;;;1.00;0.90;;;9.70;99.90;;;;;;4973602;28;20194;-86
2022/04/07 02:11:04;;;;;;;1.40;1.17;;;9.60;99.90;;;;;;4957667;28;20180;-86
2022/04/07 02:13:32;;;;;;;0.97;0.97;;;9.60;99.90;;;;;;4973845;28;20206;-86
2022/04/07 02:15:58;;;;;;;1.00;0.90;;;9.60;99.90;;;;;;4973932;28;20184;-86
2022/04/07 02:18:24;;;;;;;0.83;0.83;;;9.60;99.90;;;;;;4957893;28;20235;-86
2022/04/07 02:20:51;;;;;;;1.60;1.10;;;9.60;99.90;;;;;;4957609;28;20192;-86
2022/04/07 02:23:17;;;;;;;1.33;1.00;;;9.60;99.90;;;;;;4973652;28;20224;-86
2022/04/07 02:25:43;;;;;;;0.70;0.70;;;9.60;99.90;;;;;;4957649;28;20649;-86
2022/04/07 02:28:09;;;;;;;1.00;0.90;;;9.60;99.90;;;;;;4959505;28;20180;-87
2022/04/07 02:30:35;;;;;;;0.97;0.80;;;9.60;99.90;;;;;;4971854;28;20226;-86
2022/04/07 02:33:01;;;;;;;0.97;0.80;;;9.50;99.90;;;;;;4973963;28;20219;-86
2022/04/07 02:35:27;;;;;;;2.30;0.90;;;9.50;99.90;;;;;;4973616;28;20215;-87
2022/04/07 02:37:53;;;;;;;1.20;0.80;;;9.60;99.90;;;;;;4973442;28;20223;-86
2022/04/07 02:40:19;;;;;;;0.80;0.80;;;9.50;99.90;;;;;;4973624;28;20181;-86
2022/04/07 02:42:44;;;;;;;1.30;0.60;;;9.50;99.90;;;;;;4989692;28;20254;-86
2022/04/07 02:45:10;;;;;;;0.80;0.80;;;9.50;99.90;;;;;;4974077;28;20280;-86
2022/04/07 02:47:40;;;;;;;0.70;0.70;;;9.50;99.90;;;;;;4974194;28;20609;-87
2022/04/07 02:50:07;;;;;;;0.60;0.60;;;9.50;99.90;;;;;;4974010;28;20212;-86
2022/04/07 02:52:33;;;;;;;0.80;0.80;;;9.50;99.90;;;;;;4974096;28;20258;-86
2022/04/07 02:54:59;;;;;;;0.70;0.70;;;9.50;99.90;;;;;;4974865;28;20176;-86
2022/04/07 02:57:30;;;;;;;0.70;0.70;;;9.50;99.90;;;;;;4975552;28;20269;-86
2022/04/07 02:59:58;;;;;;;1.23;0.70;;;9.50;99.90;;;;;;4995278;28;20221;-86
2022/04/07 03:02:24;;;;;;;0.87;0.87;;;9.50;99.90;;;;;;4981089;28;20279;-87
2022/04/07 03:04:50;;;;;;;1.37;0.63;;;9.40;99.90;;;;;;4980298;28;20175;-86
2022/04/07 03:07:16;;;;;;;1.93;1.00;;;9.50;99.90;;;;;;4980318;28;20187;-86
2022/04/07 03:09:42;;;;;;;2.33;0.90;;;9.50;99.90;;;;;;4980324;28;20179;-86
2022/04/07 03:12:09;;;;;;;1.47;0.90;;;9.50;99.90;;;;;;4980118;28;20190;-86
2022/04/07 03:14:35;;;;;;;0.83;0.80;;;9.40;99.90;;;;;;4980094;28;20191;-86
2022/04/07 03:17:02;;;;;;;0.80;0.77;;;9.40;99.90;;;;;;4980111;28;20218;-86
2022/04/07 03:19:28;;;;;;;0.70;0.70;;;9.40;99.90;;;;;;4980103;28;20187;-86
2022/04/07 03:21:55;;;;;;;0.77;0.77;;;9.40;99.90;;;;;;4980073;28;20175;-86
2022/04/07 03:24:21;;;;;;;1.00;0.70;;;9.40;99.90;;;;;;4979951;28;20271;-86
2022/04/07 03:26:47;;;;;;;1.03;0.77;;;9.40;99.90;;;;;;4980308;28;20243;-86
2022/04/07 03:29:12;;;;;;;1.40;0.80;;;9.40;99.90;;;;;;4979933;28;20724;-86
2022/04/07 03:31:38;;;;;;;0.97;0.80;;;9.40;99.90;;;;;;4974455;28;20187;-86
2022/04/07 03:34:04;;;;;;;0.70;0.60;;;9.50;99.90;;;;;;4975311;28;20254;-86
2022/04/07 03:36:30;;;;;;;0.77;0.70;;;9.50;99.90;;;;;;4979579;28;20314;-86
2022/04/07 03:38:56;;;;;;;0.77;0.77;;;9.50;99.90;;;;;;4979309;28;20175;-86
2022/04/07 03:41:22;;;;;;;2.00;0.90;;;9.50;99.90;;;;;;4978454;28;20182;-86
2022/04/07 03:43:48;;;;;;;0.60;0.60;;;9.50;99.90;;;;;;4979480;28;20326;-86
2022/04/07 03:46:16;;;;;;;1.20;0.70;;;9.50;99.90;;;;;;4995885;28;20183;-86
2022/04/07 03:48:42;;;;;;;0.60;0.60;;;9.50;99.90;;;;;;4996070;28;20183;-86
2022/04/07 03:51:09;;;;;;;0.80;0.80;;;9.50;99.90;;;;;;4979399;28;20179;-86
2022/04/07 03:53:34;;;;;;;0.70;0.70;;;9.50;99.90;;;;;;4978822;28;20199;-86
2022/04/07 03:56:01;;;;;;;0.93;0.70;;;9.50;99.90;;;;;;4979166;28;20187;-86
2022/04/07 03:58:29;;;;;;;2.20;1.47;;;9.50;99.90;;;;;;4976395;28;20196;-86
2022/04/07 04:00:55;;;;;;;0.83;0.70;;;9.50;99.90;;;;;;4980490;28;20171;-88
2022/04/07 04:03:21;;;;;;;0.70;0.70;;;9.50;99.90;;;;;;4980202;28;20211;-86
2022/04/07 04:05:47;;;;;;;1.63;0.90;;;9.50;99.90;;;;;;4979430;28;20187;-86
2022/04/07 04:08:13;;;;;;;3.03;0.80;;;9.50;99.90;;;;;;4977322;28;20175;-86
2022/04/07 04:10:39;;;;;;;1.10;0.80;;;9.50;99.90;;;;;;4970938;28;20233;-86
2022/04/07 04:13:06;;;;;;;1.27;0.90;;;9.50;99.90;;;;;;4973999;28;20199;-86
2022/04/07 04:15:32;;;;;;;0.77;0.73;;;9.50;99.90;;;;;;4985061;28;20180;-86
2022/04/07 04:17:57;;;;;;;2.50;1.50;;;9.50;99.90;;;;;;4972311;28;20270;-86
2022/04/07 04:20:24;;;;;;;2.47;1.20;;;9.50;99.90;;;;;;4975959;28;20190;-85
2022/04/07 04:22:50;;;;;;;1.10;1.00;;;9.50;99.90;;;;;;4975903;28;20196;-86
2022/04/07 04:25:16;;;;;;;0.80;0.80;;;9.50;99.90;;;;;;4975613;28;20179;-86
2022/04/07 04:27:42;;;;;;;3.00;1.17;;;9.40;99.90;;;;;;4975747;28;20184;-85
2022/04/07 04:30:09;;;;;;;3.00;1.43;;;9.40;99.90;;;;;;4978329;28;20191;-86
2022/04/07 04:32:35;;;;;;;1.87;1.30;;;9.40;99.90;;;;;;4978466;28;20223;-86
2022/04/07 04:35:02;;;;;;;1.43;1.10;;;9.40;99.90;;;;;;4978734;28;20250;-86
2022/04/07 04:37:28;;;;;;;2.43;0.90;;;9.40;99.90;;;;;;4978570;28;20211;-86
2022/04/07 04:39:54;;;;;;;2.77;1.27;;;9.40;99.90;;;;;;4978587;28;20175;-86
2022/04/07 04:42:20;;;;;;;1.80;1.00;;;9.40;99.90;;;;;;4978536;28;20255;-85
2022/04/07 04:44:47;;;;;;;2.70;1.50;;;9.40;99.90;;;;;;4978756;28;20175;-86
2022/04/07 04:47:13;;;;;;;3.33;1.50;;;9.50;99.90;;;;;;4974662;28;20271;-86
2022/04/07 04:49:43;;;;;;;4.77;1.47;;;9.50;99.90;;;;;;4975278;28;20184;-86
2022/04/07 04:52:10;;;;;;;3.63;1.67;;;9.50;99.90;;;;;;4967710;28;20196;-86
2022/04/07 04:54:36;;;;;;;4.87;1.50;;;9.60;99.90;;;;;;4988396;28;20176;-86
2022/04/07 04:57:02;;;;;;;2.80;1.80;;;9.60;99.90;;;;;;4978499;28;20227;-86
2022/04/07 04:59:28;;;;;;;6.00;1.80;;;9.60;99.90;;;;;;4970217;28;20214;-86
2022/04/07 05:01:55;;;;;;;2.30;1.60;;;9.60;99.90;;;;;;4967204;28;20199;-86
2022/04/07 05:04:22;;;;;;;10.97;3.23;;;9.70;99.90;;;;;;4983622;28;20175;-86
2022/04/07 05:06:54;;;;;;;5.97;3.43;;;9.70;99.90;;;;;;4978887;28;20186;-86
2022/04/07 05:09:20;;;;;;;8.03;3.10;;;9.70;99.90;;;;;;4992819;28;20194;-86
2022/04/07 05:11:45;;;;;;;8.90;3.37;;;9.70;99.90;;;;;;4978378;28;20193;-87
2022/04/07 05:14:11;;;;;;;3.10;2.10;;;9.70;99.90;;;;;;4977219;28;20759;-86
2022/04/07 05:16:37;;;;;;;6.70;1.90;;;9.70;99.90;;;;;;4976708;28;20230;-87
2022/04/07 05:19:04;;;;;;;1.93;1.07;;;9.80;99.90;;;;;;4977388;28;20189;-87
2022/04/07 05:21:30;;;;;;;1.13;1.03;;;9.80;99.90;;;;;;4977438;28;20253;-85
2022/04/07 05:23:56;;;;;;;1.90;1.43;;;9.80;99.90;;;;;;4978095;28;20234;-87
2022/04/07 05:26:22;;;;;;;2.73;1.30;;;9.80;99.90;;;;;;4994006;28;20199;-86
2022/04/07 05:28:48;;;;;;;1.20;1.03;;;9.80;99.90;;;;;;4985926;28;20211;-87
2022/04/07 05:31:14;;;;;;;1.07;0.97;;;9.80;99.90;;;;;;4958413;28;20184;-87
2022/04/07 05:33:39;;;;;;;1.67;1.17;;;9.80;99.90;;;;;;4958330;28;20196;-87
2022/04/07 05:36:05;;;;;;;3.73;1.20;;;9.80;99.90;;;;;;4958150;28;20656;-87
2022/04/07 05:38:31;;;;;;;1.00;0.90;;;9.80;99.90;;;;;;4958049;28;20190;-87
2022/04/07 05:40:57;;;;;;;4.73;0.90;;;9.80;99.90;;;;;;4957792;28;20637;-87
2022/04/07 05:43:23;;;;;;;3.23;1.57;;;9.80;99.90;;;;;;4957690;28;20207;-87
2022/04/07 05:45:50;;;;;;;2.47;1.10;;;9.90;99.90;;;;;;4958522;28;20651;-87
2022/04/07 05:48:17;;;;;;;4.13;0.83;;;9.90;99.90;;;;;;4957913;28;20271;-87
2022/04/07 05:50:43;;;;;;;2.43;0.80;;;9.90;99.90;;;;;;4958007;28;20188;-87
2022/04/07 05:53:10;;;;;;;0.70;0.70;;;9.90;99.90;;;;;;4958126;28;20263;-87
2022/04/07 05:55:37;;;;;;;1.17;0.80;;;10.00;99.90;;;;;;4957638;28;20215;-87
2022/04/07 05:58:04;;;;;;;1.33;0.60;;;10.00;99.90;;;;;;4957947;28;20250;-87
2022/04/07 06:00:30;;;;;;;1.93;0.80;;;10.00;99.90;;;;;;4974266;28;20180;-87
2022/04/07 06:02:56;;;;;;;2.90;1.00;;;10.10;99.90;;;;;;4974158;28;20199;-87
2022/04/07 06:05:22;;;;;;;5.07;1.90;;;10.10;99.90;;;;;;4957880;28;20184;-87
2022/04/07 06:07:48;;;;;;;3.67;2.00;;;10.20;99.90;;;;;;4957696;28;20223;-87
2022/04/07 06:10:14;;;;;;;0.77;0.77;;;10.20;99.90;;;;;;4957647;28;20180;-87
2022/04/07 06:12:57;;;;;;;0.83;0.70;;;10.30;99.90;;;;;;4974484;28;20235;-87
2022/04/07 06:15:23;;;;;;;0.60;0.60;;;10.30;99.90;;;;;;4959848;28;20183;-88
2022/04/07 06:17:51;;;;;;;4.47;1.20;;;10.30;99.90;;;;;;4959632;28;20207;-88
2022/04/07 06:20:19;;;;;;;4.87;1.90;;;10.30;99.90;;;;;;4960101;28;20176;-89
2022/04/07 06:22:45;;;;;;;0.97;0.70;;;10.40;99.90;;;;;;4973585;28;20192;-87
2022/04/07 06:25:12;;;;;;;5.30;1.20;;;10.50;99.90;;;;;;4974507;28;20271;-87
2022/04/07 06:27:40;;;;;;;7.70;4.67;;;10.50;99.90;;;;;;4974452;28;20183;-87
2022/04/07 06:30:09;;;;;;;9.20;3.67;;;10.50;99.90;;;;;;4976277;28;20183;-87
2022/04/07 06:32:37;;;;;;;1.87;1.70;;;10.50;99.90;;;;;;4996724;28;20337;-87
2022/04/07 06:35:03;;;;;;;3.50;1.10;;;10.50;99.90;;;;;;4981554;28;20183;-87
2022/04/07 06:37:29;;;;;;;1.53;1.20;;;10.60;99.90;;;;;;4981260;28;20203;-86
2022/04/07 06:40:00;;;;;;;1.47;1.30;;;10.60;99.90;;;;;;4981332;28;20184;-87
2022/04/07 06:42:27;;;;;;;2.03;1.30;;;10.60;99.90;;;;;;4981383;28;20198;-87
2022/04/07 06:44:57;;;;;;;7.43;1.73;;;10.60;99.90;;;;;;4980845;28;20183;-87
2022/04/07 06:47:23;;;;;;;3.43;1.80;;;10.60;99.90;;;;;;4996735;28;20176;-87
2022/04/07 06:49:52;;;;;;;0.97;0.73;;;10.70;99.90;;;;;;4980202;28;20183;-88
2022/04/07 06:52:19;;;;;;;2.57;0.80;;;10.70;99.90;;;;;;4980250;28;20206;-87
2022/04/07 06:54:45;;;;;;;0.77;0.60;;;10.70;99.90;;;;;;4980437;28;20171;-87
2022/04/07 06:57:11;;;;;;;0.70;0.70;;;10.80;99.90;;;;;;4980405;28;20284;-87
2022/04/07 06:59:37;;;;;;;4.70;0.70;;;10.80;99.90;;;;;;4976881;28;20220;-87
2022/04/07 07:02:03;;;;;;;2.53;1.00;;;10.90;99.90;;;;;;4977115;28;20183;-87
2022/04/07 07:04:32;;;;;;;1.43;0.70;;;10.90;99.90;;;;;;4976904;28;20180;-87
2022/04/07 07:06:58;;;;;;;1.83;0.80;;;10.90;99.90;;;;;;4977028;28;20195;-87
2022/04/07 07:09:25;;;;;;;1.57;1.00;;;11.00;99.90;;;;;;4976855;28;20180;-88
2022/04/07 07:11:51;;;;;;;1.37;0.67;;;11.00;99.90;;;;;;4976971;28;20187;-87
2022/04/07 07:14:17;;;;;;;1.73;0.70;;;11.10;99.90;;;;;;4976955;28;20211;-87
2022/04/07 07:16:43;;;;;;;0.83;0.70;;;11.10;99.90;;;;;;4976542;28;20250;-87
2022/04/07 07:19:10;;;;;;;0.63;0.60;;;11.20;99.90;;;;;;4992060;28;20243;-88
2022/04/07 07:21:36;;;;;;;2.33;0.80;;;11.20;99.90;;;;;;4976875;28;20218;-88
2022/04/07 07:24:03;;;;;;;1.43;0.90;;;11.20;99.90;;;;;;4976742;28;20204;-88
2022/04/07 07:26:29;;;;;;;0.67;0.67;;;11.20;99.90;;;;;;4976652;28;20267;-88
2022/04/07 07:28:55;;;;;;;2.00;0.90;;;11.10;99.90;;;;;;4971312;28;20302;-87
2022/04/07 07:31:21;;;;;;;0.87;0.80;;;11.20;99.90;;;;;;4960479;28;20189;-88
2022/04/07 07:33:46;;;;;;;1.17;0.73;;;11.20;99.90;;;;;;4960117;28;20216;-88
2022/04/07 07:36:12;;;;;;;1.83;0.70;;;11.20;99.90;;;;;;4960411;28;20237;-87
2022/04/07 07:38:38;;;;;;;1.03;0.77;;;11.30;99.90;;;;;;4976266;28;20191;-88
2022/04/07 07:41:05;;;;;;;3.03;1.20;;;11.40;99.90;;;;;;4960120;28;20177;-88
2022/04/07 07:43:31;;;;;;;0.77;0.73;;;11.50;99.90;;;;;;4959339;28;20200;-88
2022/04/07 07:45:57;;;;;;;0.67;0.60;;;11.60;99.90;;;;;;4976021;28;20180;-88
2022/04/07 07:48:29;;;;;;;0.57;0.57;;;11.70;99.90;;;;;;4959938;28;20177;-87
2022/04/07 07:50:56;;;;;;;0.93;0.70;;;11.80;99.90;;;;;;4959949;28;20185;-88
2022/04/07 07:53:22;;;;;;;1.07;0.80;;;11.80;99.90;;;;;;4976025;28;20288;-87
2022/04/07 07:55:49;;;;;;;1.00;0.70;;;11.80;99.90;;;;;;4976014;28;20196;-87
2022/04/07 07:58:15;;;;;;;0.63;0.60;;;11.80;99.90;;;;;;4959583;28;20579;-87
2022/04/07 08:00:41;;;;;;;2.30;0.50;;;11.80;99.90;;;;;;4959173;28;20242;-88
2022/04/07 08:03:07;;;;;;;1.20;0.57;;;11.70;99.90;;;;;;4959514;28;20622;-88
2022/04/07 08:05:33;;;;;;;4.30;1.60;;;11.70;99.90;;;;;;4959901;28;20185;-87
2022/04/07 08:07:59;;;;;;;1.43;1.00;;;11.70;99.90;;;;;;4959747;28;20271;-87
2022/04/07 08:10:25;;;;;;;1.60;1.00;;;11.80;99.90;;;;;;4959571;28;20246;-87
2022/04/07 08:12:51;;;;;;;2.00;1.00;;;11.90;99.90;;;;;;4959480;28;20258;-87
2022/04/07 08:15:16;;;;;;;0.73;0.53;;;11.90;99.90;;;;;;4959140;28;20184;-87
2022/04/07 08:17:42;;;;;;;5.73;1.00;;;12.00;99.90;;;;;;4959475;28;20289;-88
2022/04/07 08:20:09;;;;;;;1.67;0.80;;;12.20;99.90;;;;;;4959377;28;20354;-88
2022/04/07 08:22:35;;;;;;;1.70;0.60;;;12.30;99.90;;;;;;4959386;28;20202;-88
2022/04/07 08:25:01;;;;;;;0.60;0.50;;;12.40;99.90;;;;;;4959453;28;20176;-87
2022/04/07 08:27:27;;;;;;;2.60;0.77;;;12.70;99.90;;;;;;4975399;28;20183;-87
2022/04/07 08:29:53;;;;;;;2.40;0.60;;;12.70;99.90;;;;;;4959243;28;20200;-87
2022/04/07 08:32:19;;;;;;;1.23;0.77;;;12.70;99.90;;;;;;4959915;28;20226;-87
2022/04/07 08:34:46;;;;;;;1.00;0.60;;;12.70;99.90;;;;;;4976718;28;20207;-87
2022/04/07 08:37:11;;;;;;;1.23;0.60;;;12.60;99.90;;;;;;4960034;28;20321;-87
2022/04/07 08:39:37;;;;;;;1.83;0.73;;;12.60;99.90;;;;;;4978191;28;20211;-87
2022/04/07 08:42:05;;;;;;;2.90;0.60;;;12.60;99.90;;;;;;4962637;28;20182;-87
2022/04/07 08:44:32;;;;;;;1.43;0.60;;;12.70;99.90;;;;;;4981068;28;20194;-86
2022/04/07 08:46:59;;;;;;;0.63;0.60;;;12.80;99.90;;;;;;4979790;28;20185;-88
2022/04/07 08:49:30;;;;;;;1.27;0.60;;;13.00;99.90;;;;;;4982016;28;20216;-87
2022/04/07 08:51:57;;;;;;;4.17;0.60;;;13.20;99.90;;;;;;4981227;28;20227;-87
2022/04/07 08:54:23;;;;;;;4.50;0.50;;;13.30;99.90;;;;;;4980820;28;20181;-87
2022/04/07 08:56:49;;;;;;;1.53;0.43;;;13.40;99.90;;;;;;4981013;28;20202;-87
2022/04/07 08:59:16;;;;;;;1.07;0.40;;;13.40;99.90;;;;;;4991571;28;20215;-87
2022/04/07 09:01:42;;;;;;;1.50;0.50;;;13.30;99.90;;;;;;4984193;28;20279;-88
2022/04/07 09:04:11;;;;;;;3.97;0.83;;;13.20;99.90;;;;;;4982262;28;20273;-87
2022/04/07 09:06:39;;;;;;;2.33;1.07;;;13.10;99.90;;;;;;4979944;28;20193;-87
2022/04/07 09:09:14;;;;;;;2.00;0.90;;;12.90;99.90;;;;;;4995414;28;20182;-87
2022/04/07 09:11:40;;;;;;;1.47;0.50;;;12.60;99.90;;;;;;4980800;28;20195;-86
2022/04/07 09:14:10;;;;;;;1.17;0.83;;;12.60;99.90;;;;;;4986453;28;20212;-87
2022/04/07 09:16:38;;;;;;;0.40;0.40;;;12.50;99.90;;;;;;4985771;28;20220;-86
2022/04/07 09:19:04;;;;;;;0.47;0.47;;;12.50;99.90;;;;;;4983691;28;20187;-87
2022/04/07 09:21:31;;;;;;;0.60;0.60;;;12.50;99.90;;;;;;4984292;28;20185;-86
2022/04/07 09:23:58;;;;;;;0.50;0.50;;;12.50;99.90;;;;;;4982617;28;20211;-87
2022/04/07 09:26:24;;;;;;;0.80;0.50;;;12.60;99.90;;;;;;4979333;28;20185;-87
2022/04/07 09:28:57;;;;;;;0.50;0.50;;;12.70;99.90;;;;;;4979182;28;20197;-87
2022/04/07 09:31:24;;;;;;;0.40;0.40;;;12.80;99.90;;;;;;4978625;28;20190;-87
2022/04/07 09:33:54;;;;;;;0.70;0.70;;;12.80;99.90;;;;;;4977963;28;20198;-87
2022/04/07 09:36:21;;;;;;;0.50;0.50;;;12.90;99.90;;;;;;4977768;28;20213;-87
2022/04/07 09:38:55;;;;;;;1.60;0.67;;;12.70;99.90;;;;;;4977528;28;20643;-86
2022/04/07 09:41:22;;;;;;;0.50;0.40;;;12.70;99.90;;;;;;4993708;28;20203;-87
2022/04/07 09:43:50;;;;;;;0.70;0.60;;;12.70;99.90;;;;;;4978357;28;20217;-87
2022/04/07 09:46:21;;;;;;;1.07;0.60;;;12.70;99.90;;;;;;4977867;28;20229;-87
2022/04/07 09:49:07;;;;;;;2.00;0.60;;;12.70;99.90;;;;;;4977869;28;20186;-87
2022/04/07 09:51:50;;;;;;;0.53;0.50;;;12.80;99.90;;;;;;4977893;28;20296;-88
2022/04/07 09:54:17;;;;;;;2.50;0.60;;;12.80;99.90;;;;;;4977885;28;20279;-87
2022/04/07 09:56:46;;;;;;;4.37;0.70;;;12.90;99.90;;;;;;4977751;28;20217;-88
2022/04/07 09:59:16;;;;;;;1.43;0.53;;;12.90;99.90;;;;;;4977532;28;20201;-87
2022/04/07 10:01:43;;;;;;;2.90;0.67;;;13.00;99.90;;;;;;4977601;28;20190;-87
2022/04/07 10:04:09;;;;;;;1.07;0.50;;;13.20;99.90;;;;;;4977687;28;20675;-87
2022/04/07 10:06:38;;;;;;;1.83;0.60;;;13.30;99.90;;;;;;4978465;28;20183;-87
2022/04/07 10:09:07;;;;;;;2.63;0.80;;;13.30;99.90;;;;;;4981623;28;20178;-87
2022/04/07 10:11:33;;;;;;;1.30;0.90;;;13.30;99.90;;;;;;4981763;28;20655;-87
2022/04/07 10:14:00;;;;;;;1.90;0.60;;;13.30;99.90;;;;;;4982208;28;20202;-87
2022/04/07 10:16:27;;;;;;;2.00;0.77;;;13.40;99.90;;;;;;4982306;28;20222;-87
2022/04/07 10:19:07;;;;;;;1.00;0.60;;;13.30;99.90;;;;;;4982416;28;20182;-86
2022/04/07 10:22:01;;;;;;;1.10;0.50;;;13.30;99.90;;;;;;4982713;28;20178;-87
2022/04/07 10:24:45;;;;;;;0.60;0.60;;;13.30;99.90;;;;;;4982601;28;20202;-87
2022/04/07 10:27:14;;;;;;;0.87;0.60;;;13.50;99.90;;;;;;4981128;28;20211;-86
2022/04/07 10:29:40;;;;;;;0.57;0.57;;;13.40;99.90;;;;;;4976420;28;20183;-86
2022/04/07 10:32:12;;;;;;;1.57;0.60;;;13.50;99.90;;;;;;4982960;28;20198;-86
2022/04/07 10:34:57;;;;;;;0.50;0.50;;;13.50;99.90;;;;;;4997371;28;20274;-87
2022/04/07 10:37:30;;;;;;;2.53;0.63;;;13.50;99.90;;;;;;4974118;28;20199;-88
2022/04/07 10:40:17;;;;;;;1.23;0.80;;;13.50;99.90;;;;;;4980029;28;20182;-90
2022/04/07 10:43:13;;;;;;;1.07;0.50;;;13.60;99.90;;;;;;4986769;28;20198;-90
2022/04/07 10:45:53;;;;;;;0.57;0.50;;;13.80;99.90;;;;;;4979046;28;20321;-84
2022/04/07 10:48:20;;;;;;;0.30;0.30;;;13.70;99.90;;;;;;4979940;28;20172;-88
2022/04/07 10:51:01;;;;;;;0.50;0.50;;;13.60;99.90;;;;;;4979261;28;20176;-82
2022/04/07 10:53:28;;;;;;;0.57;0.50;;;13.60;99.90;;;;;;4983176;28;20281;-78
2022/04/07 10:56:32;;;;;;;1.40;0.60;;;13.60;99.90;;;;;;4983170;28;20186;-79
2022/04/07 10:59:11;;;;;;;0.40;0.40;;;13.80;99.90;;;;;;4976839;28;20565;-79
2022/04/07 11:01:37;;;;;;;1.50;0.40;;;14.00;99.90;;;;;;4983582;28;20181;-85
2022/04/07 11:04:19;;;;;;;1.30;0.47;;;14.10;99.90;;;;;;4968197;28;20199;-83
2022/04/07 11:07:07;;;;;;;0.50;0.50;;;14.00;99.90;;;;;;4977902;28;20186;-83
2022/04/07 11:09:45;;;;;;;6.53;0.90;;;14.00;99.90;;;;;;4967798;28;20183;-84
2022/04/07 11:12:15;;;;;;;2.33;0.60;;;14.10;99.90;;;;;;4992542;28;20214;-84
2022/04/07 11:14:43;;;;;;;0.90;0.50;;;14.20;99.90;;;;;;4973812;28;20168;-83
2022/04/07 11:17:14;;;;;;;1.00;0.40;;;14.20;99.90;;;;;;4990050;28;20200;-83
2022/04/07 11:20:09;;;;;;;1.50;0.70;;;14.20;99.90;;;;;;4979379;28;20180;-83
2022/04/07 11:23:08;;;;;;;1.00;0.47;;;14.20;99.90;;;;;;4991969;28;20223;-77
2022/04/07 11:25:37;;;;;;;0.43;0.43;;;14.30;99.90;;;;;;4982504;28;20180;-86
2022/04/07 11:28:22;;;;;;;2.83;0.50;;;14.40;99.90;;;;;;4977164;28;20175;-87
2022/04/07 11:30:53;;;;;;;2.37;0.60;;;14.30;99.90;;;;;;4974075;28;20188;-87
2022/04/07 11:33:28;;;;;;;1.50;0.50;;;14.20;99.90;;;;;;4975633;28;20204;-86
2022/04/07 11:36:51;;;;;;;0.63;0.60;;;14.20;99.90;;;;;;4984941;28;20338;-87
2022/04/07 11:39:53;;;;;;;0.70;0.40;;;14.20;99.90;;;;;;4992017;28;20195;-88
2022/04/07 11:42:25;;;;;;;1.70;0.50;;;14.00;99.90;;;;;;4963740;28;20200;-87
2022/04/07 11:44:57;;;;;;;0.50;0.50;;;14.00;99.90;;;;;;4975920;28;20250;-88
2022/04/07 11:47:34;;;;;;;0.50;0.50;;;14.00;99.90;;;;;;4959812;28;20187;-87
2022/04/07 11:50:02;;;;;;;2.07;0.50;;;13.90;99.90;;;;;;4960331;28;20179;-88
2022/04/07 11:52:31;;;;;;;1.80;0.40;;;13.90;99.90;;;;;;4978632;28;20286;-87
2022/04/07 11:54:59;;;;;;;0.40;0.40;;;13.80;99.90;;;;;;4978296;28;20269;-87
2022/04/07 11:57:29;;;;;;;0.60;0.53;;;13.60;99.90;;;;;;4982395;28;20199;-87
2022/04/07 12:00:05;;;;;;;1.97;0.50;;;13.50;99.90;;;;;;4981142;28;20179;-89
2022/04/07 12:02:38;;;;;;;1.37;0.40;;;13.50;99.90;;;;;;4980259;28;20315;-87
2022/04/07 12:05:05;;;;;;;0.30;0.30;;;13.40;99.90;;;;;;4970121;28;20266;-86
2022/04/07 12:07:31;;;;;;;0.63;0.50;;;13.30;99.90;;;;;;4975299;28;20194;-87
2022/04/07 12:10:06;;;;;;;1.23;0.43;;;13.40;99.90;;;;;;4973205;28;20180;-86
2022/04/07 12:12:33;;;;;;;0.47;0.47;;;13.30;99.90;;;;;;4977221;28;20209;-86
2022/04/07 12:15:00;;;;;;;0.93;0.47;;;13.30;99.90;;;;;;4970605;28;20183;-86
2022/04/07 12:17:26;;;;;;;1.83;0.43;;;13.20;99.90;;;;;;4970578;28;20321;-86
2022/04/07 12:19:52;;;;;;;0.50;0.50;;;13.20;99.90;;;;;;4971121;28;20870;-87
2022/04/07 12:22:30;;;;;;;4.47;0.57;;;13.20;99.90;;;;;;4990034;28;20199;-86
2022/04/07 12:25:06;;;;;;;0.40;0.30;;;13.30;99.90;;;;;;4977939;28;20273;-86
2022/04/07 12:27:34;;;;;;;0.40;0.40;;;13.40;99.90;;;;;;4976546;28;20276;-87
2022/04/07 12:30:01;;;;;;;1.20;0.30;;;13.50;99.90;;;;;;4984802;28;20248;-87
2022/04/07 12:32:44;;;;;;;1.23;0.37;;;13.60;99.90;;;;;;4983424;28;20207;-88
2022/04/07 12:35:13;;;;;;;1.73;0.50;;;13.80;99.90;;;;;;4982946;28;20183;-86
2022/04/07 12:37:43;;;;;;;0.53;0.40;;;13.90;99.90;;;;;;4968737;28;20203;-83
2022/04/07 12:40:15;;;;;;;0.83;0.40;;;13.80;99.90;;;;;;4980707;28;20171;-87
2022/04/07 12:42:53;;;;;;;0.87;0.40;;;13.60;99.90;;;;;;4971891;28;20262;-87
2022/04/07 12:45:30;;;;;;;1.03;0.60;;;13.50;99.90;;;;;;4979783;28;20210;-87
2022/04/07 12:48:06;;;;;;;0.30;0.30;;;13.50;99.90;;;;;;4979024;28;20210;-87
2022/04/07 12:50:36;;;;;;;0.47;0.47;;;13.50;99.90;;;;;;4968489;28;20182;-87
2022/04/07 12:53:04;;;;;;;0.57;0.57;;;13.50;99.90;;;;;;4944415;28;20219;-87
2022/04/07 12:55:36;;;;;;;0.40;0.40;;;13.70;99.90;;;;;;4965956;28;20191;-85
2022/04/07 12:58:03;;;;;;;3.30;0.70;;;13.70;99.90;;;;;;4995408;28;20211;-85